TimeEDT,TemperatureF,Dew PointF,Humidity,Sea Level PressureIn,VisibilityMPH,Wind Direction,Wind SpeedMPH,Gust SpeedMPH,PrecipitationIn,Events,Conditions,WindDirDegrees,DateUTC
12:51 AM,72.0,37.0,28,29.85,10.0,NW,15.0,-,N/A,,Clear,320,2013-05-17 04:51:00
1:51 AM,70.0,36.0,29,29.87,10.0,NW,10.4,-,N/A,,Clear,320,2013-05-17 05:51:00
2:51 AM,66.0,35.1,32,29.90,10.0,NW,16.1,24.2,N/A,,Clear,320,2013-05-17 06:51:00
3:51 AM,64.0,35.1,34,29.92,10.0,NW,11.5,-,N/A,,Clear,320,2013-05-17 07:51:00
4:51 AM,61.0,37.0,41,29.95,10.0,WNW,5.8,-,N/A,,Clear,300,2013-05-17 08:51:00
5:51 AM,60.1,39.0,46,29.98,10.0,NW,5.8,-,N/A,,Scattered Clouds,320,2013-05-17 09:51:00
6:51 AM,60.1,39.9,47,30.02,10.0,NNW,9.2,-,N/A,,Scattered Clouds,340,2013-05-17 10:51:00
7:51 AM,62.1,39.9,44,30.04,10.0,NNW,15.0,-,N/A,,Mostly Cloudy,330,2013-05-17 11:51:00
8:51 AM,63.0,39.0,41,30.06,10.0,NNW,12.7,-,N/A,,Mostly Cloudy,330,2013-05-17 12:51:00
9:51 AM,63.0,39.0,41,30.07,10.0,NW,11.5,-,N/A,,Mostly Cloudy,320,2013-05-17 13:51:00
10:51 AM,64.9,39.0,39,30.08,10.0,WNW,9.2,18.4,N/A,,Mostly Cloudy,300,2013-05-17 14:51:00
11:51 AM,66.9,39.0,36,30.09,10.0,WNW,11.5,-,N/A,,Mostly Cloudy,300,2013-05-17 15:51:00
12:51 PM,68.0,37.9,33,30.09,10.0,NNW,13.8,20.7,N/A,,Mostly Cloudy,330,2013-05-17 16:51:00
1:51 PM,69.1,37.9,32,30.09,10.0,WNW,12.7,18.4,N/A,,Mostly Cloudy,300,2013-05-17 17:51:00
2:51 PM,70.0,39.0,32,30.09,10.0,NW,9.2,19.6,N/A,,Mostly Cloudy,310,2013-05-17 18:51:00
3:51 PM,71.1,39.9,32,30.08,10.0,Variable,5.8,-,N/A,,Mostly Cloudy,0,2013-05-17 19:51:00
4:51 PM,75.0,37.9,26,30.08,10.0,NW,5.8,17.3,N/A,,Mostly Cloudy,310,2013-05-17 20:51:00
5:51 PM,73.9,37.0,26,30.08,10.0,West,6.9,19.6,N/A,,Mostly Cloudy,280,2013-05-17 21:51:00
6:51 PM,73.0,36.0,26,30.09,10.0,West,9.2,-,N/A,,Mostly Cloudy,270,2013-05-17 22:51:00
7:51 PM,72.0,36.0,27,30.12,10.0,NW,9.2,-,N/A,,Mostly Cloudy,310,2013-05-17 23:51:00
8:51 PM,68.0,42.1,39,30.14,10.0,NE,4.6,-,N/A,,Mostly Cloudy,50,2013-05-18 00:51:00
9:51 PM,68.0,42.1,39,30.17,10.0,ENE,9.2,-,N/A,,Scattered Clouds,60,2013-05-18 01:51:00
10:51 PM,66.9,41.0,39,30.19,10.0,ENE,3.5,-,N/A,,Scattered Clouds,70,2013-05-18 02:51:00
11:51 PM,64.0,43.0,46,30.20,10.0,SE,3.5,-,N/A,,Mostly Cloudy,140,2013-05-18 03:51:00